createdAt,value
2023-05-31T00:00:02.084Z,64.60
2023-05-31T00:02:33.492Z,64.54
2023-05-31T00:05:01.974Z,64.22
2023-05-31T00:07:31.120Z,64.32
2023-05-31T00:10:01.552Z,64.20
2023-05-31T00:12:29.603Z,64.58
2023-05-31T00:15:00.182Z,64.46
2023-05-31T00:17:49.843Z,64.63
2023-05-31T00:20:19.049Z,64.50
2023-05-31T00:22:47.724Z,64.48
2023-05-31T00:25:18.326Z,64.39
2023-05-31T00:27:47.555Z,64.60
2023-05-31T00:30:16.451Z,64.71
2023-05-31T00:32:45.948Z,64.80
2023-05-31T00:35:14.747Z,64.83
2023-05-31T00:37:45.133Z,64.95
2023-05-31T00:40:13.965Z,64.93
2023-05-31T00:42:44.230Z,65.10
2023-05-31T00:45:14.692Z,65.24
2023-05-31T00:47:44.777Z,64.91
2023-05-31T00:50:14.057Z,65.10
2023-05-31T00:52:44.877Z,65.15
2023-05-31T00:55:13.633Z,65.18
2023-05-31T00:57:44.097Z,65.22
2023-05-31T01:00:14.243Z,65.36
2023-05-31T01:02:44.497Z,65.71
2023-05-31T01:05:13.758Z,65.98
2023-05-31T01:07:42.551Z,66.14
2023-05-31T01:10:12.554Z,66.73
2023-05-31T01:12:51.788Z,66.60
2023-05-31T01:15:25.174Z,66.31
2023-05-31T01:18:02.480Z,66.50
2023-05-31T01:20:34.379Z,66.80
2023-05-31T01:23:37.282Z,66.77
2023-05-31T01:26:36.640Z,67.01
2023-05-31T01:29:11.966Z,67.26
2023-05-31T01:31:43.638Z,67.57
2023-05-31T01:34:13.493Z,67.93
2023-05-31T01:36:42.330Z,68.26
2023-05-31T01:39:14.308Z,68.58
2023-05-31T01:41:45.161Z,69.28
2023-05-31T01:44:19.978Z,69.54
2023-05-31T01:46:49.661Z,69.69
2023-05-31T01:49:19.263Z,69.94
2023-05-31T01:51:49.946Z,70.18
2023-05-31T01:54:19.496Z,70.13
2023-05-31T01:56:49.667Z,70.08
2023-05-31T01:59:20.563Z,69.96
2023-05-31T02:01:50.330Z,69.63
2023-05-31T02:04:21.470Z,69.25
2023-05-31T02:06:52.726Z,69.07
2023-05-31T02:09:23.354Z,68.69
2023-05-31T02:11:51.973Z,68.64
2023-05-31T02:14:22.707Z,68.30
2023-05-31T02:16:51.587Z,67.87
2023-05-31T02:19:20.978Z,67.80
2023-05-31T02:21:50.294Z,67.50
2023-05-31T02:24:18.779Z,67.35
2023-05-31T02:26:48.207Z,66.91
2023-05-31T02:29:16.954Z,66.60
2023-05-31T02:31:49.780Z,66.24
2023-05-31T02:34:19.545Z,66.04
2023-05-31T02:36:47.968Z,65.73
2023-05-31T02:39:16.473Z,65.58
2023-05-31T02:41:45.022Z,65.43
2023-05-31T02:44:15.037Z,65.54
2023-05-31T02:46:43.407Z,65.17
2023-05-31T02:49:15.634Z,65.37
2023-05-31T02:51:44.700Z,65.41
2023-05-31T02:54:32.443Z,65.63
2023-05-31T02:57:01.715Z,65.82
2023-05-31T02:59:35.584Z,65.76
2023-05-31T03:02:11.369Z,65.90
2023-05-31T03:04:47.728Z,65.96
2023-05-31T03:07:16.755Z,65.72
2023-05-31T03:09:45.856Z,66.03
2023-05-31T03:12:13.541Z,66.22
2023-05-31T03:14:43.127Z,66.53
2023-05-31T03:17:10.804Z,66.56
2023-05-31T03:19:41.100Z,66.62
2023-05-31T03:22:10.183Z,66.89
2023-05-31T03:24:37.906Z,67.04
2023-05-31T03:27:07.479Z,67.21
2023-05-31T03:29:36.325Z,66.94
2023-05-31T03:32:04.257Z,66.67
2023-05-31T03:34:31.985Z,66.17
2023-05-31T03:36:59.922Z,66.19
2023-05-31T03:39:40.442Z,65.86
2023-05-31T03:42:10.989Z,65.48
2023-05-31T03:44:38.733Z,65.36
2023-05-31T03:47:07.567Z,64.52
2023-05-31T03:49:35.494Z,64.55
2023-05-31T03:52:03.239Z,64.22
2023-05-31T03:54:31.454Z,63.97
2023-05-31T03:57:00.494Z,64.29
2023-05-31T03:59:29.206Z,64.25
2023-05-31T04:01:57.432Z,63.80
2023-05-31T04:04:25.354Z,63.71
2023-05-31T04:06:55.873Z,63.59
2023-05-31T04:09:24.583Z,63.33
2023-05-31T04:11:52.980Z,63.48
2023-05-31T04:14:22.953Z,63.10
2023-05-31T04:16:50.836Z,63.04
2023-05-31T04:19:18.840Z,62.98
2023-05-31T04:21:46.752Z,63.03
2023-05-31T04:24:14.618Z,63.16
2023-05-31T04:26:42.667Z,62.98
2023-05-31T04:29:11.826Z,62.92
2023-05-31T04:31:50.757Z,62.83
2023-05-31T04:34:20.754Z,63.08
2023-05-31T04:36:51.491Z,63.29
2023-05-31T04:39:23.570Z,62.94
2023-05-31T04:41:53.711Z,63.15
2023-05-31T04:44:22.054Z,63.01
2023-05-31T04:46:53.350Z,63.13
2023-05-31T04:49:21.329Z,62.92
2023-05-31T04:51:49.859Z,62.91
2023-05-31T04:54:18.549Z,62.76
2023-05-31T04:56:46.592Z,62.99
2023-05-31T04:59:14.540Z,63.19
2023-05-31T05:01:42.521Z,62.92
2023-05-31T05:04:16.049Z,63.30
2023-05-31T05:06:44.318Z,63.53
2023-05-31T05:09:12.922Z,63.13
2023-05-31T05:11:40.744Z,62.83
2023-05-31T05:14:09.113Z,62.04
2023-05-31T05:16:37.080Z,61.92
2023-05-31T05:19:05.999Z,61.17
2023-05-31T05:21:37.930Z,60.82
2023-05-31T05:24:06.456Z,59.95
2023-05-31T05:26:36.253Z,60.34
2023-05-31T05:29:04.707Z,59.83
2023-05-31T05:31:33.012Z,59.35
2023-05-31T05:34:03.701Z,59.23
2023-05-31T05:36:31.978Z,58.45
2023-05-31T05:39:05.437Z,58.53
2023-05-31T05:41:34.684Z,58.40
2023-05-31T05:44:04.586Z,57.47
2023-05-31T05:46:32.922Z,57.75
2023-05-31T05:49:00.639Z,57.65
2023-05-31T05:51:29.130Z,57.95
2023-05-31T05:54:02.325Z,57.31
2023-05-31T05:56:30.070Z,56.41
2023-05-31T05:59:01.196Z,56.88
2023-05-31T06:01:41.852Z,56.60
2023-05-31T06:04:12.204Z,55.79
2023-05-31T06:06:40.236Z,55.67
2023-05-31T06:09:09.637Z,56.35
2023-05-31T06:11:37.305Z,55.73
2023-05-31T06:14:05.150Z,55.82
2023-05-31T06:16:39.864Z,55.00
2023-05-31T06:19:07.763Z,56.02
2023-05-31T06:21:35.945Z,55.67
2023-05-31T06:24:04.227Z,55.59
2023-05-31T06:26:36.622Z,55.45
2023-05-31T06:29:05.198Z,54.73
2023-05-31T06:31:57.015Z,55.33
2023-05-31T06:34:26.414Z,54.16
2023-05-31T06:36:58.087Z,54.41
2023-05-31T06:39:26.198Z,54.44
2023-05-31T06:41:55.541Z,54.53
2023-05-31T06:44:55.034Z,54.90
2023-05-31T06:47:43.029Z,53.78
2023-05-31T06:50:17.034Z,54.42
2023-05-31T06:52:44.847Z,53.78
2023-05-31T06:55:32.169Z,53.66
2023-05-31T06:58:02.823Z,53.00
2023-05-31T07:00:34.761Z,53.51
2023-05-31T07:03:02.491Z,52.09
2023-05-31T07:05:31.144Z,52.63
2023-05-31T07:07:59.697Z,51.76
2023-05-31T07:10:28.203Z,52.55
2023-05-31T07:12:56.205Z,51.73
2023-05-31T07:15:25.412Z,51.67
2023-05-31T07:17:53.281Z,51.18
2023-05-31T07:20:21.713Z,51.41
2023-05-31T07:22:49.366Z,50.97
2023-05-31T07:25:17.012Z,51.16
2023-05-31T07:27:44.698Z,50.45
2023-05-31T07:30:13.014Z,50.51
2023-05-31T07:32:42.217Z,50.64
2023-05-31T07:35:10.670Z,50.90
2023-05-31T07:37:39.180Z,50.13
2023-05-31T07:40:09.507Z,49.41
2023-05-31T07:42:37.262Z,49.73
2023-05-31T07:45:05.742Z,50.31
2023-05-31T07:47:34.205Z,50.79
2023-05-31T07:50:03.573Z,51.11
2023-05-31T07:52:31.261Z,50.01
2023-05-31T07:54:59.208Z,48.91
2023-05-31T07:57:26.864Z,49.83
2023-05-31T07:59:54.668Z,49.93
2023-05-31T08:02:22.934Z,49.81
2023-05-31T08:04:50.792Z,49.77
2023-05-31T08:07:20.042Z,48.93
2023-05-31T08:09:48.600Z,49.35
2023-05-31T08:12:16.508Z,48.06
2023-05-31T08:14:44.961Z,48.43
2023-05-31T08:17:12.796Z,48.08
2023-05-31T08:19:40.542Z,48.44
2023-05-31T08:22:09.103Z,49.16
2023-05-31T08:24:38.181Z,48.04
2023-05-31T08:27:06.729Z,49.06
2023-05-31T08:29:35.749Z,48.64
2023-05-31T08:32:03.416Z,48.27
2023-05-31T08:34:31.056Z,47.30
2023-05-31T08:36:59.120Z,46.49
2023-05-31T08:39:26.897Z,45.54
2023-05-31T08:42:02.852Z,45.32
2023-05-31T08:44:31.124Z,45.81
2023-05-31T08:47:01.114Z,46.38
2023-05-31T08:49:29.216Z,45.22
2023-05-31T08:51:58.512Z,46.13
2023-05-31T08:54:27.236Z,45.69
2023-05-31T08:56:56.464Z,45.98
2023-05-31T08:59:24.647Z,46.25
2023-05-31T09:01:53.742Z,45.51
2023-05-31T09:04:22.388Z,45.15
2023-05-31T09:06:50.106Z,45.47
2023-05-31T09:09:17.948Z,43.49
2023-05-31T09:11:46.099Z,43.33
2023-05-31T09:14:15.338Z,44.25
2023-05-31T09:16:43.070Z,43.82
2023-05-31T09:19:11.121Z,42.81
2023-05-31T09:21:43.659Z,42.60
2023-05-31T09:24:13.470Z,43.13
2023-05-31T09:26:48.708Z,42.61
2023-05-31T09:29:18.981Z,44.84
2023-05-31T09:31:47.140Z,43.13
2023-05-31T09:34:27.087Z,43.64
2023-05-31T09:36:59.619Z,41.98
2023-05-31T09:39:27.795Z,43.56
2023-05-31T09:41:59.910Z,41.37
2023-05-31T09:44:30.217Z,42.43
2023-05-31T09:46:59.062Z,41.33
2023-05-31T09:49:29.347Z,40.71
2023-05-31T09:51:57.636Z,41.64
2023-05-31T09:54:28.401Z,39.63
2023-05-31T09:56:57.919Z,39.45
2023-05-31T09:59:26.125Z,40.34
2023-05-31T10:01:55.933Z,39.35
2023-05-31T10:04:24.134Z,39.98
2023-05-31T10:06:52.920Z,38.96
2023-05-31T10:09:20.568Z,39.62
2023-05-31T10:11:52.669Z,38.51
2023-05-31T10:14:26.084Z,38.13
2023-05-31T10:16:57.215Z,39.54
2023-05-31T10:19:28.569Z,37.93
2023-05-31T10:22:00.722Z,38.34
2023-05-31T10:24:32.815Z,38.94
2023-05-31T10:27:05.017Z,39.44
2023-05-31T10:29:35.589Z,39.16
2023-05-31T10:32:12.236Z,39.78
2023-05-31T10:34:40.324Z,38.73
2023-05-31T10:37:08.610Z,38.69
2023-05-31T10:39:45.183Z,38.08
2023-05-31T10:42:21.419Z,37.81
2023-05-31T10:44:59.711Z,38.04
2023-05-31T10:47:36.587Z,37.65
2023-05-31T10:50:05.572Z,38.50
2023-05-31T10:52:33.239Z,38.62
2023-05-31T10:55:21.032Z,37.75
2023-05-31T10:57:52.775Z,37.96
2023-05-31T11:00:21.455Z,38.04
2023-05-31T11:02:52.624Z,39.83
2023-05-31T11:05:22.831Z,37.38
2023-05-31T11:07:51.915Z,37.71
2023-05-31T11:10:30.903Z,38.15
2023-05-31T11:13:03.952Z,36.44
2023-05-31T11:15:42.118Z,38.33
2023-05-31T11:18:15.419Z,36.22
2023-05-31T11:20:43.125Z,37.19
2023-05-31T11:23:30.235Z,37.74
2023-05-31T11:26:21.361Z,36.76
2023-05-31T11:28:58.098Z,36.83
2023-05-31T11:32:00.800Z,37.56
2023-05-31T11:34:31.325Z,37.68
2023-05-31T11:37:00.965Z,35.49
2023-05-31T11:39:28.911Z,36.77
2023-05-31T11:41:57.585Z,36.70
2023-05-31T11:44:31.210Z,37.15
2023-05-31T11:47:06.289Z,36.84
2023-05-31T11:49:35.617Z,36.29
2023-05-31T11:52:04.275Z,35.27
2023-05-31T11:54:34.270Z,37.47
2023-05-31T11:57:05.118Z,35.74
2023-05-31T11:59:34.308Z,37.20
2023-05-31T12:02:02.854Z,37.53
2023-05-31T12:04:32.896Z,36.61
2023-05-31T12:07:02.107Z,35.31
2023-05-31T12:09:30.999Z,36.35
2023-05-31T12:11:58.943Z,36.65
2023-05-31T12:14:27.295Z,36.21
2023-05-31T12:16:56.002Z,36.39
2023-05-31T12:19:24.053Z,38.20
2023-05-31T12:21:52.510Z,36.66
2023-05-31T12:24:21.608Z,35.78
2023-05-31T12:26:50.313Z,36.52
2023-05-31T12:29:18.909Z,36.40
2023-05-31T12:31:47.715Z,36.96
2023-05-31T12:34:19.369Z,37.02
2023-05-31T12:36:48.306Z,37.47
2023-05-31T12:39:19.822Z,36.45
2023-05-31T12:41:50.620Z,36.73
2023-05-31T12:44:21.336Z,36.52
2023-05-31T12:46:50.201Z,36.76
2023-05-31T12:49:22.700Z,36.99
2023-05-31T12:51:50.555Z,36.21
2023-05-31T12:54:19.478Z,36.52
2023-05-31T12:56:48.627Z,37.23
2023-05-31T12:59:16.499Z,36.02
2023-05-31T13:01:45.878Z,35.54
2023-05-31T13:04:14.870Z,36.92
2023-05-31T13:06:42.677Z,36.92
2023-05-31T13:09:10.943Z,35.45
2023-05-31T13:11:39.502Z,37.96
2023-05-31T13:14:10.618Z,35.49
2023-05-31T13:16:40.689Z,37.04
2023-05-31T13:19:09.178Z,37.01
2023-05-31T13:21:38.028Z,37.53
2023-05-31T13:24:07.316Z,38.39
2023-05-31T13:26:36.914Z,38.38
2023-05-31T13:29:05.871Z,36.91
2023-05-31T13:31:35.003Z,37.12
2023-05-31T13:34:02.888Z,36.51
2023-05-31T13:36:30.756Z,36.63
2023-05-31T13:38:58.503Z,37.46
2023-05-31T13:41:26.144Z,37.45
2023-05-31T13:43:53.842Z,36.89
2023-05-31T13:46:21.580Z,36.71
2023-05-31T13:48:50.698Z,37.47
2023-05-31T13:51:18.498Z,37.79
2023-05-31T13:53:46.289Z,38.24
2023-05-31T13:56:13.980Z,37.60
2023-05-31T13:58:41.930Z,37.72
2023-05-31T14:01:09.915Z,36.61
2023-05-31T14:03:37.871Z,36.60
2023-05-31T14:06:07.699Z,36.17
2023-05-31T14:08:36.894Z,37.59
2023-05-31T14:11:04.680Z,36.44
2023-05-31T14:13:32.395Z,36.66
2023-05-31T14:16:01.472Z,38.01
2023-05-31T14:18:29.438Z,38.05
2023-05-31T14:20:57.865Z,38.71
2023-05-31T14:23:27.497Z,38.89
2023-05-31T14:25:55.630Z,38.05
2023-05-31T14:28:23.479Z,36.37
2023-05-31T14:30:51.563Z,36.33
2023-05-31T14:33:20.131Z,35.87
2023-05-31T14:35:49.417Z,36.11
2023-05-31T14:38:35.122Z,36.57
2023-05-31T14:41:07.139Z,35.99
2023-05-31T14:43:36.427Z,35.96
2023-05-31T14:46:06.122Z,37.63
2023-05-31T14:48:35.233Z,37.11
2023-05-31T14:51:04.453Z,36.93
2023-05-31T14:53:32.916Z,36.93
2023-05-31T14:56:16.508Z,36.95
2023-05-31T14:58:48.676Z,38.11
2023-05-31T15:01:17.978Z,37.31
2023-05-31T15:03:47.273Z,36.57
2023-05-31T15:06:17.703Z,37.21
2023-05-31T15:08:46.628Z,36.89
2023-05-31T15:11:15.032Z,36.20
2023-05-31T15:13:43.416Z,35.96
2023-05-31T15:16:13.618Z,34.56
2023-05-31T15:18:42.269Z,36.48
2023-05-31T15:21:10.908Z,36.43
2023-05-31T15:23:39.900Z,35.60
2023-05-31T15:26:09.412Z,34.92
2023-05-31T15:28:37.937Z,35.59
2023-05-31T15:31:09.617Z,36.31
2023-05-31T15:33:39.839Z,35.09
2023-05-31T15:36:08.907Z,34.52
2023-05-31T15:38:36.926Z,35.47
2023-05-31T15:41:05.364Z,35.67
2023-05-31T15:43:33.778Z,36.08
2023-05-31T15:46:01.897Z,36.76
2023-05-31T15:48:29.723Z,35.92
2023-05-31T15:50:59.412Z,34.89
2023-05-31T15:53:27.594Z,35.46
2023-05-31T15:55:56.254Z,36.48
2023-05-31T15:58:24.014Z,36.08
2023-05-31T16:00:51.822Z,36.88
2023-05-31T16:03:19.677Z,37.88
2023-05-31T16:05:47.724Z,36.52
2023-05-31T16:08:17.127Z,36.39
2023-05-31T16:10:45.204Z,36.55
2023-05-31T16:13:13.399Z,35.99
2023-05-31T16:15:41.723Z,35.54
2023-05-31T16:18:11.036Z,34.99
2023-05-31T16:20:39.814Z,35.54
2023-05-31T16:23:10.092Z,35.69
2023-05-31T16:25:41.190Z,35.29
2023-05-31T16:28:11.008Z,36.49
2023-05-31T16:30:39.996Z,35.66
2023-05-31T16:33:10.009Z,36.19
2023-05-31T16:35:39.609Z,36.87
2023-05-31T16:38:08.328Z,36.78
2023-05-31T16:40:36.639Z,38.79
2023-05-31T16:43:07.020Z,37.34
2023-05-31T16:45:34.816Z,37.87
2023-05-31T16:48:02.730Z,38.09
2023-05-31T16:50:30.411Z,37.43
2023-05-31T16:52:58.420Z,38.20
2023-05-31T16:55:26.069Z,38.24
2023-05-31T16:57:53.979Z,38.71
2023-05-31T17:00:23.544Z,38.08
2023-05-31T17:02:51.339Z,38.46
2023-05-31T17:05:19.142Z,39.42
2023-05-31T17:07:47.059Z,39.54
2023-05-31T17:10:14.880Z,39.61
2023-05-31T17:12:44.135Z,40.17
2023-05-31T17:15:12.450Z,39.78
2023-05-31T17:17:42.562Z,40.08
2023-05-31T17:20:12.629Z,40.21
2023-05-31T17:22:40.661Z,40.50
2023-05-31T17:25:09.302Z,39.72
2023-05-31T17:27:36.968Z,39.02
2023-05-31T17:30:05.302Z,38.95
2023-05-31T17:32:33.036Z,39.57
2023-05-31T17:35:02.032Z,39.57
2023-05-31T17:37:31.173Z,39.82
2023-05-31T17:39:59.044Z,39.65
2023-05-31T17:42:26.819Z,40.77
2023-05-31T17:44:54.503Z,41.00
2023-05-31T17:47:22.179Z,40.79
2023-05-31T17:49:49.964Z,41.17
2023-05-31T17:52:18.945Z,41.70
2023-05-31T17:54:46.738Z,42.35
2023-05-31T17:57:14.408Z,42.63
2023-05-31T17:59:42.181Z,43.66
2023-05-31T18:02:10.072Z,43.34
2023-05-31T18:04:37.910Z,43.73
2023-05-31T18:07:07.362Z,44.16
2023-05-31T18:09:36.775Z,44.50
2023-05-31T18:12:04.787Z,44.75
2023-05-31T18:14:32.420Z,44.75
2023-05-31T18:17:00.218Z,44.77
2023-05-31T18:19:29.079Z,44.58
2023-05-31T18:21:56.978Z,44.76
2023-05-31T18:24:24.651Z,44.90
2023-05-31T18:26:54.032Z,44.78
2023-05-31T18:29:23.664Z,45.04
2023-05-31T18:31:51.649Z,45.15
2023-05-31T18:34:19.394Z,45.52
2023-05-31T18:36:47.273Z,45.81
2023-05-31T18:39:14.918Z,46.30
2023-05-31T18:41:42.970Z,46.30
2023-05-31T18:44:11.962Z,46.88
2023-05-31T18:46:40.157Z,47.39
2023-05-31T18:49:07.840Z,47.91
2023-05-31T18:51:36.918Z,48.34
2023-05-31T18:54:05.180Z,49.10
2023-05-31T18:56:33.025Z,49.01
2023-05-31T18:59:00.693Z,49.74
2023-05-31T19:01:30.085Z,49.56
2023-05-31T19:03:57.969Z,49.77
2023-05-31T19:06:25.674Z,50.16
2023-05-31T19:08:53.360Z,50.71
2023-05-31T19:11:21.064Z,50.87
2023-05-31T19:13:48.737Z,51.19
2023-05-31T19:16:16.418Z,51.43
2023-05-31T19:18:45.463Z,51.36
2023-05-31T19:21:15.262Z,51.83
2023-05-31T19:23:43.993Z,51.54
2023-05-31T19:26:12.597Z,51.68
2023-05-31T19:28:40.299Z,52.07
2023-05-31T19:31:07.995Z,52.84
2023-05-31T19:33:35.742Z,52.83
2023-05-31T19:36:05.350Z,53.06
2023-05-31T19:38:34.262Z,53.22
2023-05-31T19:41:02.159Z,53.95
2023-05-31T19:43:30.717Z,54.20
2023-05-31T19:46:00.048Z,54.82
2023-05-31T19:48:28.260Z,55.37
2023-05-31T19:50:56.216Z,55.50
2023-05-31T19:53:25.220Z,56.25
2023-05-31T19:55:52.857Z,56.41
2023-05-31T19:58:20.589Z,56.55
2023-05-31T20:00:49.192Z,56.79
2023-05-31T20:03:17.089Z,57.47
2023-05-31T20:05:44.796Z,58.36
2023-05-31T20:08:13.258Z,58.91
2023-05-31T20:10:42.318Z,58.29
2023-05-31T20:13:24.512Z,58.22
2023-05-31T20:15:52.656Z,57.93
2023-05-31T20:18:21.895Z,57.65
2023-05-31T20:20:49.567Z,58.00
2023-05-31T20:23:17.274Z,58.40
2023-05-31T20:25:46.535Z,60.00
2023-05-31T20:28:14.177Z,60.13
2023-05-31T20:30:41.995Z,60.12
2023-05-31T20:33:09.697Z,60.36
2023-05-31T20:35:37.419Z,60.59
2023-05-31T20:38:05.093Z,60.62
2023-05-31T20:40:33.119Z,60.79
2023-05-31T20:43:02.112Z,61.17
2023-05-31T20:45:29.800Z,62.12
2023-05-31T20:47:57.843Z,63.02
2023-05-31T20:50:26.554Z,64.13
2023-05-31T20:52:54.390Z,64.40
2023-05-31T20:55:22.583Z,64.83
2023-05-31T20:57:50.506Z,65.25
2023-05-31T21:00:23.069Z,66.55
2023-05-31T21:02:50.938Z,67.52
2023-05-31T21:05:18.729Z,67.72
2023-05-31T21:07:46.379Z,67.14
2023-05-31T21:10:15.262Z,66.54
2023-05-31T21:12:43.186Z,66.33
2023-05-31T21:15:11.392Z,65.80
2023-05-31T21:17:40.492Z,65.20
2023-05-31T21:20:09.694Z,64.96
2023-05-31T21:22:37.564Z,65.01
2023-05-31T21:25:05.933Z,64.49
2023-05-31T21:27:33.866Z,64.24
2023-05-31T21:30:01.480Z,64.26
2023-05-31T21:32:29.417Z,65.37
2023-05-31T21:34:58.461Z,66.07
2023-05-31T21:37:26.156Z,66.55
2023-05-31T21:39:53.824Z,65.88
2023-05-31T21:42:21.480Z,64.75
2023-05-31T21:44:49.135Z,65.04
2023-05-31T21:47:16.981Z,65.99
2023-05-31T21:49:44.699Z,66.29
2023-05-31T21:52:14.141Z,66.45
2023-05-31T21:54:41.797Z,67.22
2023-05-31T21:57:11.358Z,67.71
2023-05-31T21:59:39.212Z,68.17
2023-05-31T22:02:07.657Z,68.58
2023-05-31T22:04:35.653Z,69.05
2023-05-31T22:07:03.342Z,69.29
2023-05-31T22:09:32.425Z,69.39
2023-05-31T22:12:00.171Z,68.71
2023-05-31T22:14:29.312Z,67.88
2023-05-31T22:16:57.833Z,66.57
2023-05-31T22:19:26.897Z,65.98
2023-05-31T22:21:56.052Z,65.39
2023-05-31T22:24:24.732Z,64.99
2023-05-31T22:26:53.797Z,64.51
2023-05-31T22:29:21.790Z,64.12
2023-05-31T22:31:49.618Z,64.15
2023-05-31T22:34:17.420Z,63.93
2023-05-31T22:36:45.889Z,63.86
2023-05-31T22:39:14.289Z,63.39
2023-05-31T22:41:41.986Z,63.44
2023-05-31T22:44:11.291Z,63.36
2023-05-31T22:46:38.943Z,63.31
2023-05-31T22:49:06.735Z,63.46
2023-05-31T22:51:34.373Z,63.92
2023-05-31T22:54:02.295Z,63.96
2023-05-31T22:56:29.930Z,64.49
2023-05-31T22:58:57.694Z,64.33
2023-05-31T23:01:26.989Z,64.78
2023-05-31T23:03:55.012Z,64.93
2023-05-31T23:06:26.368Z,65.18
2023-05-31T23:08:54.370Z,65.00
2023-05-31T23:11:23.165Z,66.01
2023-05-31T23:13:50.816Z,66.50
2023-05-31T23:16:19.530Z,66.83
2023-05-31T23:18:48.590Z,67.70
2023-05-31T23:21:17.446Z,67.81
2023-05-31T23:23:45.270Z,67.77
2023-05-31T23:26:12.912Z,67.08
2023-05-31T23:28:40.720Z,66.67
2023-05-31T23:31:08.482Z,66.70
2023-05-31T23:33:36.266Z,66.45
2023-05-31T23:36:05.613Z,66.77
2023-05-31T23:38:33.265Z,66.71
2023-05-31T23:41:01.650Z,66.74
2023-05-31T23:43:29.426Z,67.21
2023-05-31T23:45:57.224Z,67.21
2023-05-31T23:48:25.012Z,67.65
2023-05-31T23:50:53.027Z,67.90
2023-05-31T23:53:22.192Z,68.47
2023-05-31T23:55:49.899Z,69.07
2023-05-31T23:58:17.656Z,69.71
